Time,TemperatureF,DewpointF,PressureIn,WindDirection,WindDirectionDegrees,WindSpeedMPH,WindSpeedGustMPH,Humidity,HourlyPrecipIn,Conditions,Clouds,dailyrainin,SoftwareType,DateUTC
2013-05-28 00:00:00,61.3,56.4,30.13,ESE,120,3.0,4.0,84,0.00,,---,0.00,VWS V14.01,2013-05-28 04:00:00,
2013-05-28 00:01:00,61.3,56.4,30.13,East,99,5.0,5.0,84,0.00,,---,0.00,VWS V14.01,2013-05-28 04:01:00,
2013-05-28 00:02:00,61.4,56.5,30.13,ENE,77,5.0,5.0,84,0.00,,---,0.00,VWS V14.01,2013-05-28 04:02:00,
2013-05-28 00:07:00,61.6,56.7,30.13,ESE,121,3.0,7.0,84,0.00,,---,0.00,VWS V14.01,2013-05-28 04:07:00,
2013-05-28 00:12:00,61.6,56.7,30.13,SE,132,3.0,7.0,84,0.00,,---,0.00,VWS V14.01,2013-05-28 04:12:00,
2013-05-28 00:18:00,61.4,56.5,30.13,ESE,117,2.0,7.0,84,0.00,,---,0.00,VWS V14.01,2013-05-28 04:18:00,
2013-05-28 00:23:00,61.5,56.6,30.12,SE,124,4.0,7.0,84,0.00,,---,0.00,VWS V14.01,2013-05-28 04:23:00,
2013-05-28 00:28:00,61.4,56.5,30.12,SE,133,2.0,7.0,84,0.00,,---,0.00,VWS V14.01,2013-05-28 04:28:00,
2013-05-28 00:33:00,61.4,56.5,30.12,SE,129,1.0,7.0,84,0.00,,---,0.00,VWS V14.01,2013-05-28 04:33:00,
2013-05-28 00:38:00,61.4,56.5,30.12,SE,124,2.0,7.0,84,0.00,,---,0.00,VWS V14.01,2013-05-28 04:38:00,
2013-05-28 00:43:00,61.4,56.5,30.12,ESE,107,2.0,7.0,84,0.00,,---,0.00,VWS V14.01,2013-05-28 04:43:00,
2013-05-28 00:48:00,61.4,56.5,30.12,SE,129,5.0,8.0,84,0.00,,---,0.00,VWS V14.01,2013-05-28 04:48:00,
2013-05-28 00:53:00,61.5,56.6,30.12,East,98,3.0,8.0,84,0.00,,---,0.00,VWS V14.01,2013-05-28 04:53:00,
2013-05-28 00:58:00,61.6,56.7,30.12,SE,132,4.0,8.0,84,0.00,,---,0.00,VWS V14.01,2013-05-28 04:58:00,
2013-05-28 01:03:00,61.6,56.7,30.11,SSE,153,3.0,6.0,84,0.00,,---,0.00,VWS V14.01,2013-05-28 05:03:00,
2013-05-28 01:09:00,61.4,56.5,30.11,SE,128,1.0,6.0,84,0.00,,---,0.00,VWS V14.01,2013-05-28 05:09:00,
2013-05-28 01:14:00,61.3,56.4,30.11,SE,139,3.0,6.0,84,0.00,,---,0.00,VWS V14.01,2013-05-28 05:14:00,
2013-05-28 01:19:00,61.3,56.4,30.11,ESE,116,1.0,6.0,84,0.00,,---,0.00,VWS V14.01,2013-05-28 05:19:00,
2013-05-28 01:24:00,61.2,56.7,30.11,SE,132,2.0,6.0,85,0.00,,---,0.00,VWS V14.01,2013-05-28 05:24:00,
2013-05-28 01:29:00,61.2,56.7,30.11,SE,132,2.0,6.0,85,0.00,,---,0.00,VWS V14.01,2013-05-28 05:29:00,
2013-05-28 01:34:00,61.1,56.6,30.11,SSE,152,2.0,6.0,85,0.00,,---,0.00,VWS V14.01,2013-05-28 05:34:00,
2013-05-28 01:39:00,60.9,56.4,30.11,SE,135,1.0,6.0,85,0.00,,---,0.00,VWS V14.01,2013-05-28 05:39:00,
2013-05-28 01:44:00,60.7,56.5,30.10,SE,135,1.0,6.0,86,0.00,,---,0.00,VWS V14.01,2013-05-28 05:44:00,
2013-05-28 01:49:00,60.5,56.3,30.10,SE,124,2.0,6.0,86,0.00,,---,0.00,VWS V14.01,2013-05-28 05:49:00,
2013-05-28 01:54:00,60.2,56.3,30.10,ESE,113,2.0,6.0,87,0.00,,---,0.00,VWS V14.01,2013-05-28 05:54:00,
2013-05-28 02:00:00,60.0,56.1,30.10,ESE,122,1.0,1.0,87,0.00,,---,0.00,VWS V14.01,2013-05-28 06:00:00,
2013-05-28 02:05:00,59.5,55.6,30.10,ESE,108,2.0,2.0,87,0.00,,---,0.00,VWS V14.01,2013-05-28 06:05:00,
2013-05-28 02:10:00,59.5,56.0,30.10,SE,125,1.0,4.0,88,0.00,,---,0.00,VWS V14.01,2013-05-28 06:10:00,
2013-05-28 02:15:00,59.6,56.0,30.10,ESE,122,1.0,4.0,88,0.00,,---,0.00,VWS V14.01,2013-05-28 06:15:00,
2013-05-28 02:20:00,59.5,56.0,30.10,ESE,110,1.0,4.0,88,0.00,,---,0.00,VWS V14.01,2013-05-28 06:20:00,
2013-05-28 02:25:00,59.1,55.5,30.10,ESE,118,0.0,4.0,88,0.00,,---,0.00,VWS V14.01,2013-05-28 06:25:00,
2013-05-28 02:30:00,59.0,55.8,30.10,ESE,110,0.0,1.0,89,0.00,,---,0.00,VWS V14.01,2013-05-28 06:30:00,
2013-05-28 02:35:00,58.9,55.7,30.10,ESE,110,0.0,1.0,89,0.00,,---,0.00,VWS V14.01,2013-05-28 06:35:00,
2013-05-28 02:40:00,58.8,55.9,30.10,ESE,120,1.0,1.0,90,0.00,,---,0.00,VWS V14.01,2013-05-28 06:40:00,
2013-05-28 02:45:00,58.9,55.7,30.10,SE,131,1.0,3.0,89,0.00,,---,0.00,VWS V14.01,2013-05-28 06:45:00,
2013-05-28 02:50:00,58.7,55.5,30.10,ESE,117,1.0,4.0,89,0.00,,---,0.00,VWS V14.01,2013-05-28 06:50:00,
2013-05-28 02:55:00,58.5,55.3,30.09,SE,142,2.0,6.0,89,0.00,,---,0.00,VWS V14.01,2013-05-28 06:55:00,
2013-05-28 03:01:00,58.8,55.3,30.09,SSE,158,1.0,4.0,88,0.00,,---,0.00,VWS V14.01,2013-05-28 07:01:00,
2013-05-28 03:06:00,59.0,55.8,30.09,SSE,165,2.0,5.0,89,0.00,,---,0.00,VWS V14.01,2013-05-28 07:06:00,
2013-05-28 03:11:00,58.8,55.6,30.09,SE,141,1.0,5.0,89,0.00,,---,0.00,VWS V14.01,2013-05-28 07:11:00,
2013-05-28 03:16:00,58.7,55.5,30.09,SE,131,1.0,5.0,89,0.00,,---,0.00,VWS V14.01,2013-05-28 07:16:00,
2013-05-28 03:21:00,58.5,55.3,30.09,ESE,107,3.0,5.0,89,0.00,,---,0.00,VWS V14.01,2013-05-28 07:21:00,
2013-05-28 03:26:00,58.3,55.1,30.09,SE,136,1.0,5.0,89,0.00,,---,0.00,VWS V14.01,2013-05-28 07:26:00,
2013-05-28 03:31:00,58.1,55.2,30.08,ESE,110,3.0,4.0,90,0.00,,---,0.00,VWS V14.01,2013-05-28 07:31:00,
2013-05-28 03:36:00,58.0,55.1,30.08,SE,134,0.0,4.0,90,0.00,,---,0.00,VWS V14.01,2013-05-28 07:36:00,
2013-05-28 03:41:00,57.5,54.6,30.08,ESE,107,0.0,4.0,90,0.00,,---,0.00,VWS V14.01,2013-05-28 07:41:00,
2013-05-28 03:47:00,57.5,55.2,30.08,ESE,113,1.0,4.0,92,0.00,,---,0.00,VWS V14.01,2013-05-28 07:47:00,
2013-05-28 03:52:00,57.8,55.2,30.08,ESE,105,1.0,4.0,91,0.00,,---,0.00,VWS V14.01,2013-05-28 07:52:00,
2013-05-28 03:57:00,57.9,55.3,30.08,SE,126,4.0,4.0,91,0.00,,---,0.00,VWS V14.01,2013-05-28 07:57:00,
2013-05-28 04:02:00,58.0,55.4,30.08,ESE,110,3.0,5.0,91,0.00,,---,0.00,VWS V14.01,2013-05-28 08:02:00,
2013-05-28 04:07:00,58.0,55.4,30.08,ESE,122,3.0,5.0,91,0.00,,---,0.00,VWS V14.01,2013-05-28 08:07:00,
2013-05-28 04:12:00,58.2,55.6,30.08,ESE,115,4.0,5.0,91,0.00,,---,0.00,VWS V14.01,2013-05-28 08:12:00,
2013-05-28 04:17:00,58.3,55.7,30.08,SE,126,6.0,7.0,91,0.00,,---,0.00,VWS V14.01,2013-05-28 08:17:00,
2013-05-28 04:22:00,58.4,55.5,30.08,East,79,4.0,7.0,90,0.00,,---,0.00,VWS V14.01,2013-05-28 08:22:00,
2013-05-28 04:27:00,58.4,55.5,30.08,ENE,73,5.0,7.0,90,0.00,,---,0.00,VWS V14.01,2013-05-28 08:27:00,
2013-05-28 04:32:00,58.4,55.5,30.08,ESE,122,3.0,5.0,90,0.00,,---,0.00,VWS V14.01,2013-05-28 08:32:00,
2013-05-28 04:37:00,58.5,55.6,30.08,SE,124,2.0,6.0,90,0.00,,---,0.00,VWS V14.01,2013-05-28 08:37:00,
2013-05-28 04:43:00,58.4,55.5,30.09,ESE,113,3.0,6.0,90,0.00,,---,0.00,VWS V14.01,2013-05-28 08:43:00,
2013-05-28 04:48:00,58.3,55.4,30.09,ESE,103,4.0,6.0,90,0.00,,---,0.00,VWS V14.01,2013-05-28 08:48:00,
2013-05-28 04:53:00,58.2,55.3,30.09,East,97,3.0,6.0,90,0.00,,---,0.00,VWS V14.01,2013-05-28 08:53:00,
2013-05-28 04:58:00,58.2,55.3,30.09,SE,132,4.0,6.0,90,0.00,,---,0.00,VWS V14.01,2013-05-28 08:58:00,
2013-05-28 05:03:00,58.2,55.3,30.09,ESE,115,2.0,6.0,90,0.00,,---,0.00,VWS V14.01,2013-05-28 09:03:00,
2013-05-28 05:08:00,58.0,55.4,30.09,East,82,2.0,6.0,91,0.00,,---,0.00,VWS V14.01,2013-05-28 09:08:00,
2013-05-28 05:13:00,58.2,55.3,30.10,ESE,113,5.0,6.0,90,0.00,,---,0.00,VWS V14.01,2013-05-28 09:13:00,
2013-05-28 05:18:00,58.1,55.2,30.10,ESE,118,2.0,6.0,90,0.00,,---,0.00,VWS V14.01,2013-05-28 09:18:00,
2013-05-28 05:23:00,57.9,55.0,30.10,East,85,2.0,6.0,90,0.00,,---,0.00,VWS V14.01,2013-05-28 09:23:00,
2013-05-28 05:28:00,57.6,54.7,30.10,SE,142,0.0,6.0,90,0.00,,---,0.00,VWS V14.01,2013-05-28 09:28:00,
2013-05-28 05:34:00,57.5,54.9,30.10,SE,124,2.0,3.0,91,0.00,,---,0.00,VWS V14.01,2013-05-28 09:34:00,
2013-05-28 05:39:00,57.1,54.5,30.10,SE,141,1.0,4.0,91,0.00,,---,0.00,VWS V14.01,2013-05-28 09:39:00,
2013-05-28 05:44:00,56.5,53.9,30.11,ESE,122,0.0,4.0,91,0.00,,---,0.00,VWS V14.01,2013-05-28 09:44:00,
2013-05-28 05:49:00,56.1,54.1,30.11,SSW,203,0.0,4.0,93,0.00,,---,0.00,VWS V14.01,2013-05-28 09:49:00,
2013-05-28 05:54:00,55.8,53.8,30.12,SSW,203,0.0,4.0,93,0.00,,---,0.00,VWS V14.01,2013-05-28 09:54:00,
2013-05-28 05:59:00,55.5,53.5,30.12,SSW,202,1.0,4.0,93,0.00,,---,0.00,VWS V14.01,2013-05-28 09:59:00,
2013-05-28 06:04:00,55.3,53.6,30.12,SSW,203,0.0,0.0,94,0.00,,---,0.00,VWS V14.01,2013-05-28 10:04:00,
2013-05-28 06:09:00,55.1,53.4,30.12,ESE,120,2.0,2.0,94,0.00,,---,0.00,VWS V14.01,2013-05-28 10:09:00,
2013-05-28 06:14:00,55.2,53.8,30.12,ESE,119,0.0,2.0,95,0.00,,---,0.00,VWS V14.01,2013-05-28 10:14:00,
2013-05-28 06:19:00,55.4,54.0,30.13,ESE,116,2.0,2.0,95,0.00,,---,0.00,VWS V14.01,2013-05-28 10:19:00,
2013-05-28 06:25:00,55.4,54.0,30.13,ESE,120,1.0,2.0,95,0.00,,---,0.00,VWS V14.01,2013-05-28 10:25:00,
2013-05-28 06:30:00,55.5,54.1,30.13,ESE,120,0.0,0.0,95,0.00,,---,0.00,VWS V14.01,2013-05-28 10:30:00,
2013-05-28 06:35:00,55.5,54.1,30.13,ESE,120,0.0,1.0,95,0.00,,---,0.00,VWS V14.01,2013-05-28 10:35:00,
2013-05-28 06:40:00,55.5,54.1,30.13,ESE,122,0.0,1.0,95,0.00,,---,0.00,VWS V14.01,2013-05-28 10:40:00,
2013-05-28 06:45:00,55.6,54.2,30.13,ESE,122,0.0,1.0,95,0.00,,---,0.00,VWS V14.01,2013-05-28 10:45:00,
2013-05-28 06:50:00,55.9,54.5,30.14,ESE,121,0.0,1.0,95,0.00,,---,0.00,VWS V14.01,2013-05-28 10:50:00,
2013-05-28 06:55:00,56.0,54.6,30.14,ESE,122,0.0,1.0,95,0.00,,---,0.00,VWS V14.01,2013-05-28 10:55:00,
2013-05-28 07:00:00,56.2,54.8,30.14,ESE,121,0.0,1.0,95,0.00,,---,0.00,VWS V14.01,2013-05-28 11:00:00,
2013-05-28 07:05:00,56.3,54.9,30.14,ESE,121,0.0,1.0,95,0.00,,---,0.00,VWS V14.01,2013-05-28 11:05:00,
2013-05-28 07:10:00,56.4,55.0,30.14,ESE,121,0.0,1.0,95,0.00,,---,0.00,VWS V14.01,2013-05-28 11:10:00,
2013-05-28 07:15:00,56.6,55.2,30.14,ESE,122,0.0,1.0,95,0.00,,---,0.00,VWS V14.01,2013-05-28 11:15:00,
2013-05-28 07:21:00,56.9,55.5,30.14,ESE,121,0.0,1.0,95,0.00,,---,0.00,VWS V14.01,2013-05-28 11:21:00,
2013-05-28 07:26:00,57.2,55.5,30.14,ESE,122,0.0,1.0,94,0.00,,---,0.00,VWS V14.01,2013-05-28 11:26:00,
2013-05-28 07:31:00,57.5,55.8,30.14,ESE,122,0.0,0.0,94,0.00,,---,0.00,VWS V14.01,2013-05-28 11:31:00,
2013-05-28 07:36:00,57.8,55.8,30.14,ESE,122,0.0,0.0,93,0.00,,---,0.00,VWS V14.01,2013-05-28 11:36:00,
2013-05-28 07:41:00,58.5,56.5,30.14,ESE,122,0.0,0.0,93,0.00,,---,0.00,VWS V14.01,2013-05-28 11:41:00,
2013-05-28 07:46:00,59.5,56.6,30.14,ESE,118,1.0,1.0,90,0.00,,---,0.00,VWS V14.01,2013-05-28 11:46:00,
2013-05-28 07:51:00,60.5,56.6,30.14,East,98,1.0,2.0,87,0.00,,---,0.00,VWS V14.01,2013-05-28 11:51:00,
2013-05-28 07:56:00,61.4,56.9,30.14,East,99,0.0,2.0,85,0.00,,---,0.00,VWS V14.01,2013-05-28 11:56:00,
2013-05-28 08:01:00,62.0,57.1,30.14,East,95,0.0,1.0,84,0.00,,---,0.00,VWS V14.01,2013-05-28 12:01:00,
2013-05-28 08:06:00,62.5,57.3,30.14,SE,132,0.0,2.0,83,0.00,,---,0.00,VWS V14.01,2013-05-28 12:06:00,
2013-05-28 08:11:00,63.0,57.4,30.14,SW,236,1.0,2.0,82,0.00,,---,0.00,VWS V14.01,2013-05-28 12:11:00,
2013-05-28 08:17:00,63.7,57.4,30.14,SE,133,0.0,3.0,80,0.00,,---,0.00,VWS V14.01,2013-05-28 12:17:00,
2013-05-28 08:22:00,64.8,57.8,30.14,SSW,205,3.0,9.0,78,0.00,,---,0.00,VWS V14.01,2013-05-28 12:22:00,
2013-05-28 08:27:00,65.9,57.8,30.14,WSW,238,4.0,9.0,75,0.00,,---,0.00,VWS V14.01,2013-05-28 12:27:00,
2013-05-28 08:32:00,66.6,57.7,30.14,SW,223,1.0,6.0,73,0.00,,---,0.00,VWS V14.01,2013-05-28 12:32:00,
2013-05-28 08:37:00,67.1,58.2,30.14,SSE,160,2.0,6.0,73,0.00,,---,0.00,VWS V14.01,2013-05-28 12:37:00,
2013-05-28 08:42:00,67.4,58.1,30.14,SE,136,1.0,8.0,72,0.00,,---,0.00,VWS V14.01,2013-05-28 12:42:00,
2013-05-28 08:47:00,67.8,57.7,30.14,ESE,122,1.0,8.0,70,0.00,,---,0.00,VWS V14.01,2013-05-28 12:47:00,
2013-05-28 08:52:00,67.8,58.5,30.14,SSW,204,1.0,9.0,72,0.00,,---,0.00,VWS V14.01,2013-05-28 12:52:00,
2013-05-28 08:57:00,67.8,57.3,30.14,WSW,248,3.0,11.0,69,0.00,,---,0.00,VWS V14.01,2013-05-28 12:57:00,
2013-05-28 09:02:00,68.1,58.3,30.14,SW,227,4.0,6.0,71,0.00,,---,0.00,VWS V14.01,2013-05-28 13:02:00,
2013-05-28 09:08:00,68.2,58.0,30.14,SSW,205,2.0,8.0,70,0.00,,---,0.00,VWS V14.01,2013-05-28 13:08:00,
2013-05-28 09:13:00,68.6,59.2,30.14,SW,223,1.0,8.0,72,0.00,,---,0.00,VWS V14.01,2013-05-28 13:13:00,
2013-05-28 09:18:00,69.1,58.5,30.14,SSE,160,4.0,8.0,69,0.00,,---,0.00,VWS V14.01,2013-05-28 13:18:00,
2013-05-28 09:23:00,69.7,59.1,30.15,West,277,4.0,12.0,69,0.00,,---,0.00,VWS V14.01,2013-05-28 13:23:00,
2013-05-28 09:28:00,69.2,58.6,30.15,SW,222,2.0,12.0,69,0.00,,---,0.00,VWS V14.01,2013-05-28 13:28:00,
2013-05-28 09:33:00,69.0,58.4,30.15,SW,214,5.0,11.0,69,0.00,,---,0.00,VWS V14.01,2013-05-28 13:33:00,
2013-05-28 09:38:00,68.8,58.2,30.15,South,189,6.0,11.0,69,0.00,,---,0.00,VWS V14.01,2013-05-28 13:38:00,
2013-05-28 09:43:00,68.8,58.2,30.15,SW,231,2.0,12.0,69,0.00,,---,0.00,VWS V14.01,2013-05-28 13:43:00,
2013-05-28 09:48:00,69.0,58.8,30.15,SW,224,8.0,12.0,70,0.00,,---,0.00,VWS V14.01,2013-05-28 13:48:00,
2013-05-28 09:53:00,68.8,58.2,30.15,SW,224,6.0,13.0,69,0.00,,---,0.00,VWS V14.01,2013-05-28 13:53:00,
2013-05-28 09:59:00,68.6,58.4,30.15,WSW,240,4.0,13.0,70,0.00,,---,0.00,VWS V14.01,2013-05-28 13:59:00,
2013-05-28 10:04:00,68.6,58.4,30.15,South,174,4.0,10.0,70,0.00,,---,0.00,VWS V14.01,2013-05-28 14:04:00,
2013-05-28 10:09:00,68.6,58.4,30.15,SW,217,4.0,10.0,70,0.00,,---,0.00,VWS V14.01,2013-05-28 14:09:00,
2013-05-28 10:14:00,68.5,58.3,30.15,SSW,203,6.0,12.0,70,0.00,,---,0.00,VWS V14.01,2013-05-28 14:14:00,
2013-05-28 10:19:00,69.0,58.8,30.15,West,270,4.0,13.0,70,0.00,,---,0.00,VWS V14.01,2013-05-28 14:19:00,
2013-05-28 10:24:00,69.7,60.3,30.15,South,191,4.0,13.0,72,0.00,,---,0.00,VWS V14.01,2013-05-28 14:24:00,
2013-05-28 10:29:00,70.2,60.4,30.15,SSW,205,12.0,13.0,71,0.00,,---,0.00,VWS V14.01,2013-05-28 14:29:00,
2013-05-28 10:34:00,70.4,60.6,30.15,WSW,242,8.0,14.0,71,0.00,,---,0.00,VWS V14.01,2013-05-28 14:34:00,
2013-05-28 10:39:00,70.2,59.2,30.15,WSW,240,3.0,14.0,68,0.00,,---,0.00,VWS V14.01,2013-05-28 14:39:00,
2013-05-28 10:44:00,70.0,60.2,30.15,SSW,205,4.0,14.0,71,0.00,,---,0.00,VWS V14.01,2013-05-28 14:44:00,
2013-05-28 10:50:00,70.5,59.4,30.14,South,191,4.0,14.0,68,0.00,,---,0.00,VWS V14.01,2013-05-28 14:50:00,
2013-05-28 10:55:00,70.8,59.7,30.14,NW,312,1.0,14.0,68,0.00,,---,0.00,VWS V14.01,2013-05-28 14:55:00,
2013-05-28 11:00:00,70.7,59.2,30.14,SW,217,8.0,12.0,67,0.00,,---,0.00,VWS V14.01,2013-05-28 15:00:00,
2013-05-28 11:05:00,71.1,59.6,30.14,SW,224,14.0,16.0,67,0.00,,---,0.00,VWS V14.01,2013-05-28 15:05:00,
2013-05-28 11:10:00,70.7,59.2,30.14,SSW,211,3.0,16.0,67,0.00,,---,0.00,VWS V14.01,2013-05-28 15:10:00,
2013-05-28 11:15:00,70.6,58.7,30.14,NW,315,6.0,16.0,66,0.00,,---,0.00,VWS V14.01,2013-05-28 15:15:00,
2013-05-28 11:20:00,70.7,59.6,30.14,SW,228,12.0,16.0,68,0.00,,---,0.00,VWS V14.01,2013-05-28 15:20:00,
2013-05-28 11:25:00,70.7,58.8,30.13,SW,233,5.0,16.0,66,0.00,,---,0.00,VWS V14.01,2013-05-28 15:25:00,
2013-05-28 11:30:00,70.7,59.6,30.13,WSW,245,3.0,5.0,68,0.00,,---,0.00,VWS V14.01,2013-05-28 15:30:00,
2013-05-28 11:35:00,71.4,59.0,30.13,South,172,11.0,17.0,65,0.00,,---,0.00,VWS V14.01,2013-05-28 15:35:00,
2013-05-28 11:41:00,71.9,59.1,30.12,SW,226,5.0,17.0,64,0.00,,---,0.00,VWS V14.01,2013-05-28 15:41:00,
2013-05-28 11:46:00,72.2,58.5,30.12,West,276,6.0,17.0,62,0.00,,---,0.00,VWS V14.01,2013-05-28 15:46:00,
2013-05-28 11:51:00,72.4,58.2,30.12,South,177,4.0,17.0,61,0.00,,---,0.00,VWS V14.01,2013-05-28 15:51:00,
2013-05-28 11:56:00,72.8,59.5,30.12,WSW,247,3.0,17.0,63,0.00,,---,0.00,VWS V14.01,2013-05-28 15:56:00,
2013-05-28 12:01:00,73.0,58.3,30.12,WNW,293,3.0,8.0,60,0.00,,---,0.00,VWS V14.01,2013-05-28 16:01:00,
2013-05-28 12:06:00,72.8,58.6,30.12,SW,217,12.0,12.0,61,0.00,,---,0.00,VWS V14.01,2013-05-28 16:06:00,
2013-05-28 12:11:00,73.1,60.7,30.12,South,180,4.0,16.0,65,0.00,,---,0.00,VWS V14.01,2013-05-28 16:11:00,
2013-05-28 12:16:00,73.7,59.4,30.12,WNW,288,2.0,16.0,61,0.00,,---,0.00,VWS V14.01,2013-05-28 16:16:00,
2013-05-28 12:21:00,74.4,59.2,30.12,WSW,252,5.0,16.0,59,0.00,,---,0.00,VWS V14.01,2013-05-28 16:21:00,
2013-05-28 12:26:00,74.3,58.1,30.12,South,170,11.0,16.0,57,0.00,,---,0.00,VWS V14.01,2013-05-28 16:26:00,
2013-05-28 12:32:00,73.3,57.2,30.12,SSW,207,6.0,16.0,57,0.00,,---,0.00,VWS V14.01,2013-05-28 16:32:00,
2013-05-28 12:37:00,73.6,57.0,30.12,WSW,256,6.0,16.0,56,0.00,,---,0.00,VWS V14.01,2013-05-28 16:37:00,
2013-05-28 12:42:00,73.2,57.5,30.12,South,176,3.0,16.0,58,0.00,,---,0.00,VWS V14.01,2013-05-28 16:42:00,
2013-05-28 12:47:00,73.5,59.2,30.12,SSE,156,1.0,16.0,61,0.00,,---,0.00,VWS V14.01,2013-05-28 16:47:00,
2013-05-28 12:52:00,74.1,58.4,30.11,NNW,329,1.0,16.0,58,0.00,,---,0.00,VWS V14.01,2013-05-28 16:52:00,
2013-05-28 12:57:00,74.4,58.7,30.11,SW,228,5.0,16.0,58,0.00,,---,0.00,VWS V14.01,2013-05-28 16:57:00,
2013-05-28 13:02:00,74.4,57.7,30.11,WSW,243,1.0,11.0,56,0.00,,---,0.00,VWS V14.01,2013-05-28 17:02:00,
2013-05-28 13:07:00,74.9,58.2,30.11,WSW,240,1.0,11.0,56,0.00,,---,0.00,VWS V14.01,2013-05-28 17:07:00,
2013-05-28 13:12:00,74.4,56.7,30.11,South,174,4.0,11.0,54,0.00,,---,0.00,VWS V14.01,2013-05-28 17:12:00,
2013-05-28 13:18:00,73.9,58.7,30.11,SSW,192,7.0,14.0,59,0.00,,---,0.00,VWS V14.01,2013-05-28 17:18:00,
2013-05-28 13:23:00,73.7,58.0,30.11,SE,145,3.0,14.0,58,0.00,,---,0.00,VWS V14.01,2013-05-28 17:23:00,
2013-05-28 13:28:00,74.0,56.3,30.11,SW,235,7.0,14.0,54,0.00,,---,0.00,VWS V14.01,2013-05-28 17:28:00,
2013-05-28 13:33:00,74.4,58.2,30.10,SSW,198,2.0,8.0,57,0.00,,---,0.00,VWS V14.01,2013-05-28 17:33:00,
2013-05-28 13:38:00,74.1,56.9,30.10,WNW,283,3.0,8.0,55,0.00,,---,0.00,VWS V14.01,2013-05-28 17:38:00,
2013-05-28 13:43:00,74.3,57.6,30.10,WSW,257,5.0,11.0,56,0.00,,---,0.00,VWS V14.01,2013-05-28 17:43:00,
2013-05-28 13:48:00,74.4,56.2,30.10,SW,214,6.0,11.0,53,0.00,,---,0.00,VWS V14.01,2013-05-28 17:48:00,
2013-05-28 13:53:00,74.7,58.0,30.10,SW,228,6.0,12.0,56,0.00,,---,0.00,VWS V14.01,2013-05-28 17:53:00,
2013-05-28 13:58:00,75.3,58.0,30.10,SSW,198,5.0,12.0,55,0.00,,---,0.00,VWS V14.01,2013-05-28 17:58:00,
2013-05-28 14:03:00,75.7,56.3,30.10,SW,218,4.0,11.0,51,0.00,,---,0.00,VWS V14.01,2013-05-28 18:03:00,
2013-05-28 14:08:00,75.4,53.2,30.10,WSW,249,5.0,11.0,46,0.00,,---,0.00,VWS V14.01,2013-05-28 18:08:00,
2013-05-28 14:14:00,75.9,56.0,30.09,South,172,3.0,11.0,50,0.00,,---,0.00,VWS V14.01,2013-05-28 18:14:00,
2013-05-28 14:19:00,76.6,57.1,30.09,SW,233,4.0,11.0,51,0.00,,---,0.00,VWS V14.01,2013-05-28 18:19:00,
2013-05-28 14:24:00,76.0,54.9,30.09,NE,44,1.0,11.0,48,0.00,,---,0.00,VWS V14.01,2013-05-28 18:24:00,
2013-05-28 14:29:00,76.8,56.2,30.09,South,180,5.0,11.0,49,0.00,,---,0.00,VWS V14.01,2013-05-28 18:29:00,
2013-05-28 14:34:00,77.0,59.1,30.08,SSE,158,2.0,11.0,54,0.00,,---,0.00,VWS V14.01,2013-05-28 18:34:00,
2013-05-28 14:39:00,77.0,57.0,30.08,SSW,196,3.0,11.0,50,0.00,,---,0.00,VWS V14.01,2013-05-28 18:39:00,
2013-05-28 14:44:00,76.7,55.0,30.08,SSE,164,2.0,11.0,47,0.00,,---,0.00,VWS V14.01,2013-05-28 18:44:00,
2013-05-28 14:49:00,76.7,53.8,30.08,West,264,4.0,11.0,45,0.00,,---,0.00,VWS V14.01,2013-05-28 18:49:00,
2013-05-28 14:55:00,76.8,54.5,30.08,SSE,162,3.0,12.0,46,0.00,,---,0.00,VWS V14.01,2013-05-28 18:55:00,
2013-05-28 15:00:00,76.4,55.8,30.08,WSW,239,8.0,8.0,49,0.00,,---,0.00,VWS V14.01,2013-05-28 19:00:00,
2013-05-28 15:05:00,76.4,56.4,30.08,WSW,247,4.0,8.0,50,0.00,,---,0.00,VWS V14.01,2013-05-28 19:05:00,
2013-05-28 15:10:00,77.0,59.1,30.08,SW,231,6.0,11.0,54,0.00,,---,0.00,VWS V14.01,2013-05-28 19:10:00,
2013-05-28 15:15:00,76.3,55.8,30.08,SW,219,3.0,11.0,49,0.00,,---,0.00,VWS V14.01,2013-05-28 19:15:00,
2013-05-28 15:20:00,75.6,56.2,30.08,SSE,167,4.0,11.0,51,0.00,,---,0.00,VWS V14.01,2013-05-28 19:20:00,
2013-05-28 15:25:00,75.8,56.4,30.08,SSW,198,1.0,11.0,51,0.00,,---,0.00,VWS V14.01,2013-05-28 19:25:00,
2013-05-28 15:30:00,77.0,57.0,30.08,West,259,2.0,3.0,50,0.00,,---,0.00,VWS V14.01,2013-05-28 19:30:00,
2013-05-28 15:35:00,76.6,57.7,30.08,SW,224,0.0,10.0,52,0.00,,---,0.00,VWS V14.01,2013-05-28 19:35:00,
2013-05-28 15:40:00,76.9,55.2,30.08,SSW,207,5.0,13.0,47,0.00,,---,0.00,VWS V14.01,2013-05-28 19:40:00,
2013-05-28 15:45:00,77.1,56.5,30.08,WNW,287,3.0,13.0,49,0.00,,---,0.00,VWS V14.01,2013-05-28 19:45:00,
2013-05-28 15:50:00,77.4,56.8,30.07,SE,139,1.0,13.0,49,0.00,,---,0.00,VWS V14.01,2013-05-28 19:50:00,
2013-05-28 15:55:00,77.4,59.0,30.07,SSE,153,1.0,13.0,53,0.00,,---,0.00,VWS V14.01,2013-05-28 19:55:00,
2013-05-28 16:01:00,77.9,56.7,30.07,South,170,4.0,7.0,48,0.00,,---,0.00,VWS V14.01,2013-05-28 20:01:00,
2013-05-28 16:06:00,77.8,56.6,30.07,SSE,160,8.0,11.0,48,0.00,,---,0.00,VWS V14.01,2013-05-28 20:06:00,
2013-05-28 16:11:00,77.7,55.3,30.07,SSW,197,2.0,11.0,46,0.00,,---,0.00,VWS V14.01,2013-05-28 20:11:00,
2013-05-28 16:16:00,77.9,56.7,30.07,SE,134,4.0,11.0,48,0.00,,---,0.00,VWS V14.01,2013-05-28 20:16:00,
2013-05-28 16:21:00,77.5,55.7,30.07,SW,221,4.0,11.0,47,0.00,,---,0.00,VWS V14.01,2013-05-28 20:21:00,
2013-05-28 16:26:00,77.3,54.9,30.07,West,279,6.0,14.0,46,0.00,,---,0.00,VWS V14.01,2013-05-28 20:26:00,
2013-05-28 16:31:00,77.1,55.9,30.07,South,190,4.0,12.0,48,0.00,,---,0.00,VWS V14.01,2013-05-28 20:31:00,
2013-05-28 16:36:00,76.4,55.3,30.07,WSW,238,5.0,12.0,48,0.00,,---,0.00,VWS V14.01,2013-05-28 20:36:00,
2013-05-28 16:41:00,76.1,56.7,30.07,SSE,155,1.0,12.0,51,0.00,,---,0.00,VWS V14.01,2013-05-28 20:41:00,
2013-05-28 16:47:00,76.8,57.3,30.06,SW,229,2.0,12.0,51,0.00,,---,0.00,VWS V14.01,2013-05-28 20:47:00,
2013-05-28 16:52:00,77.7,57.6,30.06,WSW,253,9.0,13.0,50,0.00,,---,0.00,VWS V14.01,2013-05-28 20:52:00,
2013-05-28 16:57:00,77.0,56.4,30.06,West,274,2.0,13.0,49,0.00,,---,0.00,VWS V14.01,2013-05-28 20:57:00,
2013-05-28 17:02:00,77.0,58.0,30.06,SSE,167,2.0,10.0,52,0.00,,---,0.00,VWS V14.01,2013-05-28 21:02:00,
2013-05-28 17:07:00,77.2,56.6,30.06,SSW,194,2.0,10.0,49,0.00,,---,0.00,VWS V14.01,2013-05-28 21:07:00,
2013-05-28 17:12:00,76.9,55.7,30.06,SW,225,9.0,10.0,48,0.00,,---,0.00,VWS V14.01,2013-05-28 21:12:00,
2013-05-28 17:17:00,76.6,55.5,30.06,SE,124,4.0,10.0,48,0.00,,---,0.00,VWS V14.01,2013-05-28 21:17:00,
2013-05-28 17:22:00,76.8,56.8,30.06,WSW,238,4.0,10.0,50,0.00,,---,0.00,VWS V14.01,2013-05-28 21:22:00,
2013-05-28 17:27:00,76.9,55.2,30.05,SSW,198,5.0,10.0,47,0.00,,---,0.00,VWS V14.01,2013-05-28 21:27:00,
2013-05-28 17:32:00,76.9,56.3,30.05,East,86,2.0,10.0,49,0.00,,---,0.00,VWS V14.01,2013-05-28 21:32:00,
2013-05-28 17:38:00,77.3,56.1,30.05,SW,217,3.0,10.0,48,0.00,,---,0.00,VWS V14.01,2013-05-28 21:38:00,
2013-05-28 17:43:00,77.2,56.0,30.05,South,176,3.0,10.0,48,0.00,,---,0.00,VWS V14.01,2013-05-28 21:43:00,
2013-05-28 17:48:00,77.5,54.5,30.05,WNW,299,1.0,10.0,45,0.00,,---,0.00,VWS V14.01,2013-05-28 21:48:00,
2013-05-28 17:53:00,77.7,54.1,30.05,ESE,116,2.0,10.0,44,0.00,,---,0.00,VWS V14.01,2013-05-28 21:53:00,
2013-05-28 17:58:00,77.9,54.3,30.04,SSW,197,8.0,10.0,44,0.00,,---,0.00,VWS V14.01,2013-05-28 21:58:00,
2013-05-28 18:03:00,77.6,53.4,30.04,ESE,121,6.0,9.0,43,0.00,,---,0.00,VWS V14.01,2013-05-28 22:03:00,
2013-05-28 18:08:00,77.6,54.0,30.04,SW,224,2.0,12.0,44,0.00,,---,0.00,VWS V14.01,2013-05-28 22:08:00,
2013-05-28 18:13:00,77.6,54.0,30.04,SSW,210,0.0,12.0,44,0.00,,---,0.00,VWS V14.01,2013-05-28 22:13:00,
2013-05-28 18:18:00,78.0,55.0,30.04,SE,134,5.0,12.0,45,0.00,,---,0.00,VWS V14.01,2013-05-28 22:18:00,
2013-05-28 18:24:00,77.7,54.7,30.04,SE,142,8.0,12.0,45,0.00,,---,0.00,VWS V14.01,2013-05-28 22:24:00,
2013-05-28 18:29:00,77.6,55.2,30.04,SSW,212,4.0,12.0,46,0.00,,---,0.00,VWS V14.01,2013-05-28 22:29:00,
2013-05-28 18:34:00,77.9,53.6,30.04,ESE,107,6.0,6.0,43,0.00,,---,0.00,VWS V14.01,2013-05-28 22:34:00,
2013-05-28 18:39:00,77.6,54.0,30.03,SW,226,4.0,8.0,44,0.00,,---,0.00,VWS V14.01,2013-05-28 22:39:00,
2013-05-28 18:44:00,77.4,54.4,30.04,WSW,252,3.0,8.0,45,0.00,,---,0.00,VWS V14.01,2013-05-28 22:44:00,
2013-05-28 18:49:00,77.3,53.7,30.03,South,191,6.0,10.0,44,0.00,,---,0.00,VWS V14.01,2013-05-28 22:49:00,
2013-05-28 18:54:00,77.0,53.4,30.03,SSW,203,6.0,14.0,44,0.00,,---,0.00,VWS V14.01,2013-05-28 22:54:00,
2013-05-28 18:59:00,76.5,54.2,30.03,WSW,253,3.0,14.0,46,0.00,,---,0.00,VWS V14.01,2013-05-28 22:59:00,
2013-05-28 19:04:00,76.4,55.3,30.03,SSE,155,2.0,11.0,48,0.00,,---,0.00,VWS V14.01,2013-05-28 23:04:00,
2013-05-28 19:10:00,76.4,54.7,30.03,SSE,165,3.0,11.0,47,0.00,,---,0.00,VWS V14.01,2013-05-28 23:10:00,
2013-05-28 19:15:00,76.2,54.5,30.03,SW,224,3.0,11.0,47,0.00,,---,0.00,VWS V14.01,2013-05-28 23:15:00,
2013-05-28 19:20:00,75.9,54.2,30.03,South,187,1.0,11.0,47,0.00,,---,0.00,VWS V14.01,2013-05-28 23:20:00,
2013-05-28 19:25:00,75.9,54.8,30.03,SE,139,1.0,11.0,48,0.00,,---,0.00,VWS V14.01,2013-05-28 23:25:00,
2013-05-28 19:30:00,75.8,55.3,30.03,WSW,238,3.0,4.0,49,0.00,,---,0.00,VWS V14.01,2013-05-28 23:30:00,
2013-05-28 19:35:00,75.5,55.0,30.03,SSE,156,2.0,4.0,49,0.00,,---,0.00,VWS V14.01,2013-05-28 23:35:00,
2013-05-28 19:40:00,74.9,55.0,30.03,SW,221,4.0,7.0,50,0.00,,---,0.00,VWS V14.01,2013-05-28 23:40:00,
2013-05-28 19:45:00,74.3,55.0,30.03,SSE,150,2.0,7.0,51,0.00,,---,0.00,VWS V14.01,2013-05-28 23:45:00,
2013-05-28 19:51:00,73.7,55.0,30.03,SSE,165,1.0,9.0,52,0.00,,---,0.00,VWS V14.01,2013-05-28 23:51:00,
2013-05-28 19:56:00,73.4,55.8,30.03,SSE,165,1.0,9.0,54,0.00,,---,0.00,VWS V14.01,2013-05-28 23:56:00,
2013-05-28 20:01:00,73.1,55.5,30.03,South,169,1.0,4.0,54,0.00,,---,0.00,VWS V14.01,2013-05-29 00:01:00,
2013-05-28 20:06:00,72.8,55.7,30.03,SSE,149,1.0,4.0,55,0.00,,---,0.00,VWS V14.01,2013-05-29 00:06:00,
2013-05-28 20:11:00,72.3,55.7,30.02,SE,133,0.0,4.0,56,0.00,,---,0.00,VWS V14.01,2013-05-29 00:11:00,
2013-05-28 20:16:00,72.0,56.0,30.02,SE,124,1.0,4.0,57,0.00,,---,0.00,VWS V14.01,2013-05-29 00:16:00,
2013-05-28 20:21:00,71.6,55.6,30.02,SE,128,0.0,4.0,57,0.00,,---,0.00,VWS V14.01,2013-05-29 00:21:00,
2013-05-28 20:26:00,71.0,56.4,30.02,SE,132,2.0,4.0,60,0.00,,---,0.00,VWS V14.01,2013-05-29 00:26:00,
2013-05-28 20:31:00,70.2,56.6,30.02,SE,134,3.0,5.0,62,0.00,,---,0.00,VWS V14.01,2013-05-29 00:31:00,
2013-05-28 20:36:00,70.0,57.3,30.02,ESE,113,3.0,7.0,64,0.00,,---,0.00,VWS V14.01,2013-05-29 00:36:00,
2013-05-28 20:42:00,69.9,57.6,30.02,SE,143,2.0,7.0,65,0.00,,---,0.00,VWS V14.01,2013-05-29 00:42:00,
2013-05-28 20:47:00,69.6,57.8,30.02,SSE,160,1.0,7.0,66,0.00,,---,0.00,VWS V14.01,2013-05-29 00:47:00,
2013-05-28 20:52:00,69.3,57.9,30.02,ESE,123,1.0,7.0,67,0.00,,---,0.00,VWS V14.01,2013-05-29 00:52:00,
2013-05-28 20:57:00,69.1,58.1,30.03,South,181,0.0,7.0,68,0.00,,---,0.00,VWS V14.01,2013-05-29 00:57:00,
2013-05-28 21:02:00,68.8,58.2,30.03,SSE,150,2.0,10.0,69,0.00,,---,0.00,VWS V14.01,2013-05-29 01:02:00,
2013-05-28 21:07:00,68.6,58.4,30.03,SE,136,3.0,10.0,70,0.00,,---,0.00,VWS V14.01,2013-05-29 01:07:00,
2013-05-28 21:12:00,68.3,58.5,30.03,ESE,120,4.0,10.0,71,0.00,,---,0.00,VWS V14.01,2013-05-29 01:12:00,
2013-05-28 21:17:00,68.0,58.3,30.03,SE,136,1.0,10.0,71,0.00,,---,0.00,VWS V14.01,2013-05-29 01:17:00,
2013-05-28 21:22:00,67.8,58.5,30.03,SE,131,5.0,10.0,72,0.00,,---,0.00,VWS V14.01,2013-05-29 01:22:00,
2013-05-28 21:28:00,67.7,58.4,30.03,East,89,2.0,10.0,72,0.00,,---,0.00,VWS V14.01,2013-05-29 01:28:00,
2013-05-28 21:33:00,67.6,58.7,30.03,SSE,151,2.0,8.0,73,0.00,,---,0.00,VWS V14.01,2013-05-29 01:33:00,
2013-05-28 21:38:00,67.4,58.5,30.03,SE,124,7.0,8.0,73,0.00,,---,0.00,VWS V14.01,2013-05-29 01:38:00,
2013-05-28 21:43:00,67.3,58.7,30.03,ESE,121,3.0,8.0,74,0.00,,---,0.00,VWS V14.01,2013-05-29 01:43:00,
2013-05-28 21:48:00,67.1,58.9,30.03,SE,141,3.0,8.0,75,0.00,,---,0.00,VWS V14.01,2013-05-29 01:48:00,
2013-05-28 21:53:00,67.0,58.8,30.03,ESE,113,5.0,8.0,75,0.00,,---,0.00,VWS V14.01,2013-05-29 01:53:00,
2013-05-28 21:58:00,66.8,59.0,30.04,ESE,103,3.0,8.0,76,0.00,,---,0.00,VWS V14.01,2013-05-29 01:58:00,
2013-05-28 22:03:00,66.7,58.9,30.04,ESE,118,3.0,6.0,76,0.00,,---,0.00,VWS V14.01,2013-05-29 02:03:00,
2013-05-28 22:08:00,66.6,59.2,30.04,ESE,116,4.0,7.0,77,0.00,,---,0.00,VWS V14.01,2013-05-29 02:08:00,
2013-05-28 22:14:00,66.5,59.1,30.04,SE,124,5.0,8.0,77,0.00,,---,0.00,VWS V14.01,2013-05-29 02:14:00,
2013-05-28 22:19:00,66.5,59.4,30.04,ESE,121,4.0,8.0,78,0.00,,---,0.00,VWS V14.01,2013-05-29 02:19:00,
2013-05-28 22:24:00,66.4,59.3,30.04,ESE,115,2.0,9.0,78,0.00,,---,0.00,VWS V14.01,2013-05-29 02:24:00,
2013-05-28 22:29:00,66.3,59.6,30.04,ESE,120,2.0,9.0,79,0.00,,---,0.00,VWS V14.01,2013-05-29 02:29:00,
2013-05-28 22:34:00,66.1,59.4,30.05,SSE,155,3.0,6.0,79,0.00,,---,0.00,VWS V14.01,2013-05-29 02:34:00,
2013-05-28 22:39:00,66.1,59.4,30.05,South,181,3.0,8.0,79,0.00,,---,0.00,VWS V14.01,2013-05-29 02:39:00,
2013-05-28 22:44:00,66.0,59.7,30.05,ESE,117,3.0,8.0,80,0.00,,---,0.00,VWS V14.01,2013-05-29 02:44:00,
2013-05-28 22:49:00,66.0,59.7,30.05,SSE,155,0.0,8.0,80,0.00,,---,0.00,VWS V14.01,2013-05-29 02:49:00,
2013-05-28 22:54:00,65.7,59.7,30.05,SE,137,4.0,8.0,81,0.00,,---,0.00,VWS V14.01,2013-05-29 02:54:00,
2013-05-28 22:59:00,65.7,59.7,30.05,ESE,122,2.0,8.0,81,0.00,,---,0.00,VWS V14.01,2013-05-29 02:59:00,
2013-05-28 23:05:00,65.6,59.6,30.05,ESE,114,3.0,6.0,81,0.00,,---,0.00,VWS V14.01,2013-05-29 03:05:00,
2013-05-28 23:10:00,65.4,59.8,30.05,SSE,153,4.0,6.0,82,0.00,,---,0.00,VWS V14.01,2013-05-29 03:10:00,
2013-05-28 23:15:00,65.4,59.8,30.05,SE,138,2.0,8.0,82,0.00,,---,0.00,VWS V14.01,2013-05-29 03:15:00,
2013-05-28 23:20:00,65.2,59.6,30.05,SSW,200,0.0,8.0,82,0.00,,---,0.00,VWS V14.01,2013-05-29 03:20:00,
2013-05-28 23:25:00,65.0,59.7,30.05,SE,134,4.0,8.0,83,0.00,,---,0.00,VWS V14.01,2013-05-29 03:25:00,
2013-05-28 23:30:00,65.0,59.7,30.05,SE,135,4.0,5.0,83,0.00,,---,0.00,VWS V14.01,2013-05-29 03:30:00,
2013-05-28 23:35:00,64.8,59.5,30.05,SE,131,1.0,5.0,83,0.00,,---,0.00,VWS V14.01,2013-05-29 03:35:00,
2013-05-28 23:40:00,64.7,59.8,30.05,SE,131,1.0,5.0,84,0.00,,---,0.00,VWS V14.01,2013-05-29 03:40:00,
2013-05-28 23:45:00,64.5,59.6,30.05,SE,137,2.0,5.0,84,0.00,,---,0.00,VWS V14.01,2013-05-29 03:45:00,
2013-05-28 23:51:00,64.3,59.7,30.05,SE,135,1.0,5.0,85,0.00,,---,0.00,VWS V14.01,2013-05-29 03:51:00,
2013-05-28 23:56:00,64.1,59.5,30.05,SE,129,2.0,5.0,85,0.00,,---,0.00,VWS V14.01,2013-05-29 03:56:00,